createdAt,value
2023-03-12T00:02:21.538Z,90.30
2023-03-12T00:04:48.201Z,90.80
2023-03-12T00:07:14.900Z,91.40
2023-03-12T00:09:41.522Z,91.10
2023-03-12T00:12:08.655Z,91.30
2023-03-12T00:14:35.969Z,91.50
2023-03-12T00:17:02.653Z,91.40
2023-03-12T00:19:29.316Z,91.20
2023-03-12T00:21:56.194Z,90.90
2023-03-12T00:24:22.830Z,90.90
2023-03-12T00:26:49.464Z,91.00
2023-03-12T00:29:16.162Z,91.00
2023-03-12T00:31:43.399Z,90.80
2023-03-12T00:34:11.021Z,90.80
2023-03-12T00:36:38.376Z,90.90
2023-03-12T00:39:05.581Z,91.00
2023-03-12T00:41:32.213Z,91.30
2023-03-12T00:43:58.942Z,91.40
2023-03-12T00:46:26.006Z,91.20
2023-03-12T00:48:52.850Z,91.50
2023-03-12T00:51:19.913Z,91.50
2023-03-12T00:53:47.087Z,91.10
2023-03-12T00:56:13.947Z,90.80
2023-03-12T00:58:42.678Z,90.90
2023-03-12T01:01:09.613Z,91.00
2023-03-12T01:03:36.454Z,90.90
2023-03-12T01:06:03.550Z,90.90
2023-03-12T01:08:31.011Z,90.70
2023-03-12T01:10:57.752Z,90.70
2023-03-12T01:13:24.463Z,90.60
2023-03-12T01:15:51.130Z,90.20
2023-03-12T01:18:18.033Z,90.20
2023-03-12T01:20:44.731Z,90.70
2023-03-12T01:23:11.868Z,91.10
2023-03-12T01:25:38.546Z,91.00
2023-03-12T01:28:05.530Z,90.60
2023-03-12T01:30:32.443Z,90.70
2023-03-12T01:32:59.211Z,91.40
2023-03-12T01:35:26.362Z,91.60
2023-03-12T01:37:53.332Z,91.60
2023-03-12T01:40:25.539Z,91.70
2023-03-12T01:42:57.444Z,91.50
2023-03-12T01:46:02.687Z,91.60
2023-03-12T01:48:36.372Z,91.70
2023-03-12T01:51:03.503Z,91.70
2023-03-12T01:53:31.692Z,91.70
2023-03-12T01:56:00.618Z,91.80
2023-03-12T01:58:30.467Z,91.90
2023-03-12T02:00:57.405Z,91.80
2023-03-12T02:03:24.128Z,91.80
2023-03-12T02:05:59.692Z,92.10
2023-03-12T02:08:26.832Z,91.90
2023-03-12T02:10:53.546Z,92.30
2023-03-12T02:13:20.396Z,92.40
2023-03-12T02:15:48.108Z,91.90
2023-03-12T02:18:21.292Z,91.50
2023-03-12T02:21:03.100Z,91.40
2023-03-12T02:23:58.752Z,91.50
2023-03-12T02:26:29.587Z,91.60
2023-03-12T02:29:00.326Z,91.50
2023-03-12T02:31:32.845Z,91.60
2023-03-12T02:34:00.630Z,91.60
2023-03-12T02:36:27.882Z,91.40
2023-03-12T02:38:56.069Z,91.30
2023-03-12T02:41:27.188Z,91.30
2023-03-12T02:44:05.613Z,91.50
2023-03-12T02:46:36.306Z,91.70
2023-03-12T02:49:03.932Z,92.10
2023-03-12T02:51:30.973Z,92.10
2023-03-12T02:53:57.692Z,92.10
2023-03-12T02:56:26.563Z,91.60
2023-03-12T02:58:54.188Z,92.20
2023-03-12T03:01:22.528Z,92.40
2023-03-12T03:03:49.787Z,92.70
2023-03-12T03:06:17.351Z,92.60
2023-03-12T03:08:44.032Z,92.60
2023-03-12T03:11:11.029Z,92.40
2023-03-12T03:13:38.040Z,92.20
2023-03-12T03:16:05.370Z,92.00
2023-03-12T03:18:33.270Z,91.70
2023-03-12T03:21:06.096Z,91.60
2023-03-12T03:23:33.969Z,92.10
2023-03-12T03:26:00.792Z,92.00
2023-03-12T03:28:28.757Z,92.30
2023-03-12T03:31:01.989Z,92.30
2023-03-12T03:33:34.688Z,92.40
2023-03-12T03:36:02.525Z,92.40
2023-03-12T03:38:33.305Z,91.90
2023-03-12T03:41:00.383Z,91.70
2023-03-12T03:43:27.741Z,91.90
2023-03-12T03:46:03.101Z,92.30
2023-03-12T03:48:33.250Z,92.70
2023-03-12T03:51:01.966Z,92.70
2023-03-12T03:53:31.322Z,92.70
2023-03-12T03:55:58.284Z,92.40
2023-03-12T03:58:25.289Z,92.00
2023-03-12T04:00:53.873Z,91.80
2023-03-12T04:03:20.867Z,91.80
2023-03-12T04:05:53.483Z,92.20
2023-03-12T04:08:20.183Z,92.00
2023-03-12T04:10:46.995Z,92.20
2023-03-12T04:13:13.730Z,92.80
2023-03-12T04:15:50.438Z,92.60
2023-03-12T04:18:17.727Z,92.30
2023-03-12T04:20:45.253Z,92.30
2023-03-12T04:23:12.448Z,92.50
2023-03-12T04:25:39.777Z,92.70
2023-03-12T04:28:07.145Z,92.30
2023-03-12T04:30:34.795Z,92.70
2023-03-12T04:33:01.590Z,92.80
2023-03-12T04:35:28.485Z,92.80
2023-03-12T04:37:55.549Z,92.60
2023-03-12T04:40:22.671Z,92.10
2023-03-12T04:42:49.542Z,92.20
2023-03-12T04:45:16.570Z,92.20
2023-03-12T04:47:46.307Z,92.00
2023-03-12T04:50:15.138Z,92.20
2023-03-12T04:52:42.289Z,92.20
2023-03-12T04:55:09.388Z,92.20
2023-03-12T04:57:36.699Z,92.00
2023-03-12T05:00:10.032Z,91.80
2023-03-12T05:02:37.775Z,91.40
2023-03-12T05:05:04.890Z,91.60
2023-03-12T05:07:31.555Z,92.00
2023-03-12T05:09:59.829Z,91.80
2023-03-12T05:12:26.700Z,92.20
2023-03-12T05:14:53.377Z,92.80
2023-03-12T05:17:20.400Z,93.20
2023-03-12T05:19:47.130Z,93.20
2023-03-12T05:22:14.335Z,92.90
2023-03-12T05:24:41.703Z,92.80
2023-03-12T05:27:08.494Z,93.00
2023-03-12T05:29:35.558Z,92.60
2023-03-12T05:32:03.676Z,92.20
2023-03-12T05:34:31.302Z,92.20
2023-03-12T05:37:03.009Z,92.60
2023-03-12T05:39:30.669Z,92.50
2023-03-12T05:42:02.839Z,92.30
2023-03-12T05:44:29.715Z,92.40
2023-03-12T05:46:58.929Z,91.80
2023-03-12T05:49:26.545Z,91.70
2023-03-12T05:51:54.824Z,92.10
2023-03-12T05:54:23.148Z,92.30
2023-03-12T05:56:51.638Z,92.70
2023-03-12T05:59:19.678Z,92.70
2023-03-12T06:01:46.525Z,92.70
2023-03-12T06:04:13.514Z,92.70
2023-03-12T06:06:40.284Z,92.70
2023-03-12T06:09:07.021Z,93.00
2023-03-12T06:11:34.657Z,92.70
2023-03-12T06:14:01.591Z,92.90
2023-03-12T06:16:37.838Z,92.80
2023-03-12T06:19:05.289Z,93.00
2023-03-12T06:21:34.692Z,93.60
2023-03-12T06:24:02.499Z,94.20
2023-03-12T06:26:40.657Z,94.70
2023-03-12T06:29:07.319Z,95.00
2023-03-12T06:31:35.974Z,95.60
2023-03-12T06:34:29.830Z,95.50
2023-03-12T06:36:57.059Z,95.60
2023-03-12T06:39:37.155Z,95.70
2023-03-12T06:42:27.490Z,95.70
2023-03-12T06:44:54.117Z,95.50
2023-03-12T06:47:20.959Z,95.60
2023-03-12T06:49:47.595Z,95.80
2023-03-12T06:52:14.326Z,95.90
2023-03-12T06:54:41.084Z,95.80
2023-03-12T06:57:07.849Z,95.70
2023-03-12T06:59:37.598Z,95.80
2023-03-12T07:02:04.522Z,95.80
2023-03-12T07:04:31.502Z,96.30
2023-03-12T07:07:04.870Z,96.90
2023-03-12T07:09:35.863Z,96.90
2023-03-12T07:12:04.313Z,96.50
2023-03-12T07:14:31.158Z,96.80
2023-03-12T07:16:59.132Z,96.60
2023-03-12T07:19:36.990Z,96.80
2023-03-12T07:22:04.451Z,96.50
2023-03-12T07:24:34.704Z,96.60
2023-03-12T07:27:05.650Z,96.20
2023-03-12T07:29:32.793Z,96.00
2023-03-12T07:32:00.040Z,95.90
2023-03-12T07:34:27.890Z,95.70
2023-03-12T07:37:01.376Z,95.70
2023-03-12T07:39:29.219Z,95.40
2023-03-12T07:41:55.965Z,95.10
2023-03-12T07:44:23.063Z,95.30
2023-03-12T07:46:49.856Z,95.00
2023-03-12T07:49:16.706Z,95.00
2023-03-12T07:51:43.439Z,95.00
2023-03-12T07:54:10.311Z,95.40
2023-03-12T07:56:37.086Z,96.10
2023-03-12T07:59:04.515Z,96.10
2023-03-12T08:01:38.222Z,96.10
2023-03-12T08:04:14.771Z,95.90
2023-03-12T08:06:45.374Z,96.30
2023-03-12T08:09:14.826Z,96.80
2023-03-12T08:11:41.551Z,96.90
2023-03-12T08:14:08.263Z,96.30
2023-03-12T08:16:38.053Z,96.30
2023-03-12T08:19:04.714Z,95.80
2023-03-12T08:21:31.355Z,96.00
2023-03-12T08:23:57.993Z,95.30
2023-03-12T08:26:24.916Z,95.50
2023-03-12T08:29:02.597Z,94.70
2023-03-12T08:31:29.640Z,94.60
2023-03-12T08:33:56.300Z,94.50
2023-03-12T08:36:22.942Z,94.70
2023-03-12T08:38:49.570Z,95.00
2023-03-12T08:41:16.248Z,94.90
2023-03-12T08:43:42.884Z,95.20
2023-03-12T08:46:12.220Z,95.60
2023-03-12T08:48:39.781Z,95.80
2023-03-12T08:51:07.611Z,95.60
2023-03-12T08:53:36.430Z,96.10
2023-03-12T08:56:04.281Z,95.80
2023-03-12T08:58:34.292Z,95.90
2023-03-12T09:01:01.112Z,95.80
2023-03-12T09:03:27.972Z,95.80
2023-03-12T09:06:13.177Z,95.30
2023-03-12T09:08:41.129Z,95.50
2023-03-12T09:11:09.504Z,95.30
2023-03-12T09:13:55.537Z,95.90
2023-03-12T09:16:23.081Z,95.80
2023-03-12T09:18:49.958Z,95.90
2023-03-12T09:21:32.289Z,95.80
2023-03-12T09:23:59.452Z,95.20
2023-03-12T09:26:26.181Z,95.30
2023-03-12T09:28:52.803Z,96.00
2023-03-12T09:31:22.673Z,95.90
2023-03-12T09:33:49.423Z,95.00
2023-03-12T09:36:17.599Z,94.90
2023-03-12T09:38:47.701Z,95.30
2023-03-12T09:41:20.798Z,95.60
2023-03-12T09:44:13.634Z,95.20
2023-03-12T09:46:52.699Z,95.40
2023-03-12T09:49:48.491Z,95.60
2023-03-12T09:52:27.698Z,95.80
2023-03-12T09:55:15.940Z,96.30
2023-03-12T09:57:44.198Z,96.60
2023-03-12T10:00:17.116Z,96.90
2023-03-12T10:03:00.592Z,97.20
2023-03-12T10:06:00.862Z,98.00
2023-03-12T10:08:39.887Z,98.10
2023-03-12T10:11:42.925Z,98.00
2023-03-12T10:14:47.198Z,98.30
2023-03-12T10:17:28.032Z,97.60
2023-03-12T10:20:36.280Z,97.80
2023-03-12T10:23:44.292Z,97.40
2023-03-12T10:26:16.863Z,97.80
2023-03-12T10:28:48.882Z,98.30
2023-03-12T10:31:37.254Z,98.30
2023-03-12T10:34:17.286Z,98.30
2023-03-12T10:36:45.962Z,98.30
2023-03-12T10:39:19.250Z,98.30
2023-03-12T10:41:48.184Z,98.30
2023-03-12T10:44:21.483Z,98.30
2023-03-12T10:47:23.532Z,98.30
2023-03-12T10:49:51.083Z,98.30
2023-03-12T10:52:23.485Z,98.30
2023-03-12T10:54:52.766Z,98.30
2023-03-12T10:57:21.088Z,98.30
2023-03-12T10:59:49.798Z,98.10
2023-03-12T11:02:29.149Z,98.30
2023-03-12T11:04:56.454Z,98.30
2023-03-12T11:07:35.281Z,98.10
2023-03-12T11:10:18.102Z,98.20
2023-03-12T11:13:20.019Z,98.00
2023-03-12T11:15:47.686Z,98.30
2023-03-12T11:18:35.980Z,98.30
2023-03-12T11:21:08.731Z,98.30
2023-03-12T11:23:48.241Z,98.30
2023-03-12T11:26:21.015Z,98.00
2023-03-12T11:28:58.923Z,98.00
2023-03-12T11:31:31.243Z,97.50
2023-03-12T11:34:08.020Z,97.10
2023-03-12T11:37:08.774Z,97.90
2023-03-12T11:39:57.336Z,98.10
2023-03-12T11:42:34.513Z,98.00
2023-03-12T11:45:29.488Z,97.70
2023-03-12T11:48:06.898Z,98.10
2023-03-12T11:50:51.910Z,98.00
2023-03-12T11:53:57.348Z,97.90
2023-03-12T11:56:34.663Z,98.30
2023-03-12T11:59:39.040Z,98.20
2023-03-12T12:02:36.793Z,98.20
2023-03-12T12:05:26.432Z,98.10
2023-03-12T12:08:33.808Z,98.20
2023-03-12T12:11:24.871Z,98.30
2023-03-12T12:14:28.856Z,98.30
2023-03-12T12:17:24.794Z,98.30
2023-03-12T12:20:22.741Z,98.30
2023-03-12T12:23:01.616Z,98.30
2023-03-12T12:25:46.357Z,98.30
2023-03-12T12:28:32.671Z,98.30
2023-03-12T12:31:21.013Z,98.30
2023-03-12T12:34:15.107Z,98.30
2023-03-12T12:36:48.529Z,98.30
2023-03-12T12:39:29.637Z,98.30
2023-03-12T12:41:59.749Z,98.30
2023-03-12T12:44:46.369Z,98.30
2023-03-12T12:47:18.563Z,98.30
2023-03-12T12:49:47.349Z,98.30
2023-03-12T12:52:18.064Z,98.30
2023-03-12T12:54:58.803Z,98.30
2023-03-12T12:57:54.706Z,98.10
2023-03-12T13:00:45.927Z,97.60
2023-03-12T13:03:25.493Z,98.10
2023-03-12T13:06:00.627Z,97.90
2023-03-12T13:08:58.870Z,98.30
2023-03-12T13:11:47.687Z,98.30
2023-03-12T13:14:46.281Z,98.30
2023-03-12T13:17:56.130Z,98.10
2023-03-12T13:20:47.938Z,98.00
2023-03-12T13:23:44.812Z,97.90
2023-03-12T13:26:31.615Z,97.80
2023-03-12T13:29:13.651Z,98.10
2023-03-12T13:31:42.448Z,98.10
2023-03-12T13:34:19.249Z,97.80
2023-03-12T13:36:59.786Z,97.80
2023-03-12T13:39:29.162Z,98.30
2023-03-12T13:41:57.146Z,98.30
2023-03-12T13:44:29.999Z,98.30
2023-03-12T13:47:20.458Z,98.30
2023-03-12T13:50:08.888Z,98.30
2023-03-12T13:52:48.392Z,98.30
2023-03-12T13:55:27.820Z,98.30
2023-03-12T13:57:58.834Z,98.30
2023-03-12T14:00:31.507Z,98.30
2023-03-12T14:03:09.004Z,98.30
2023-03-12T14:06:09.722Z,98.10
2023-03-12T14:09:01.507Z,98.10
2023-03-12T14:11:35.604Z,98.30
2023-03-12T14:14:34.932Z,97.90
2023-03-12T14:17:05.596Z,97.40
2023-03-12T14:19:35.454Z,95.80
2023-03-12T14:22:11.773Z,95.20
2023-03-12T14:24:49.027Z,94.30
2023-03-12T14:27:25.274Z,94.40
2023-03-12T14:30:16.738Z,94.60
2023-03-12T14:32:47.855Z,95.20
2023-03-12T14:35:33.224Z,95.80
2023-03-12T14:38:25.140Z,95.60
2023-03-12T14:41:03.729Z,95.40
2023-03-12T14:43:33.502Z,95.60
2023-03-12T14:46:06.299Z,95.90
2023-03-12T14:48:35.131Z,96.30
2023-03-12T14:51:04.411Z,96.50
2023-03-12T14:53:35.147Z,96.30
2023-03-12T14:56:05.324Z,95.50
2023-03-12T14:58:33.797Z,95.50
2023-03-12T15:05:24.010Z,94.60
2023-03-12T15:07:54.863Z,95.00
2023-03-12T15:10:26.554Z,95.40
2023-03-12T15:12:56.896Z,95.20
2023-03-12T15:15:58.489Z,95.00
2023-03-12T15:18:31.429Z,95.30
2023-03-12T15:21:00.788Z,96.00
2023-03-12T15:23:30.916Z,96.10
2023-03-12T15:26:13.177Z,96.00
2023-03-12T15:28:54.306Z,96.20
2023-03-12T15:31:21.222Z,96.50
2023-03-12T15:34:01.106Z,96.60
2023-03-12T15:36:29.635Z,96.10
2023-03-12T15:39:05.970Z,96.30
2023-03-12T15:41:41.016Z,96.80
2023-03-12T15:44:20.055Z,97.00
2023-03-12T15:47:08.038Z,97.30
2023-03-12T15:49:36.754Z,97.20
2023-03-12T15:52:26.716Z,97.50
2023-03-12T15:55:27.897Z,97.60
2023-03-12T15:57:56.706Z,97.30
2023-03-12T16:00:34.986Z,97.50
2023-03-12T16:03:08.017Z,97.60
2023-03-12T16:05:39.425Z,98.00
2023-03-12T16:08:21.752Z,98.20
2023-03-12T16:10:50.398Z,98.30
2023-03-12T16:13:22.917Z,98.30
2023-03-12T16:16:00.454Z,98.30
2023-03-12T16:18:27.571Z,98.30
2023-03-12T16:20:54.420Z,98.30
2023-03-12T16:23:21.260Z,98.20
2023-03-12T16:25:52.803Z,98.30
2023-03-12T16:28:22.487Z,97.80
2023-03-12T16:30:52.811Z,97.30
2023-03-12T16:33:23.141Z,96.90
2023-03-12T16:35:50.433Z,96.30
2023-03-12T16:38:17.477Z,96.00
2023-03-12T16:40:49.873Z,96.50
2023-03-12T16:43:25.473Z,96.80
2023-03-12T16:45:54.121Z,97.00
2023-03-12T16:48:24.415Z,96.70
2023-03-12T16:50:54.792Z,96.80
2023-03-12T16:53:23.003Z,96.40
2023-03-12T16:56:03.886Z,96.10
2023-03-12T16:58:30.961Z,96.20
2023-03-12T17:00:58.983Z,96.20
2023-03-12T17:03:37.353Z,96.30
2023-03-12T17:06:13.092Z,96.10
2023-03-12T17:08:47.204Z,95.70
2023-03-12T17:11:21.206Z,95.70
2023-03-12T17:14:02.709Z,95.90
2023-03-12T17:16:33.601Z,95.70
2023-03-12T17:19:02.843Z,95.80
2023-03-12T17:21:30.048Z,95.50
2023-03-12T17:23:56.813Z,95.50
2023-03-12T17:26:24.238Z,95.60
2023-03-12T17:28:54.348Z,95.70
2023-03-12T17:31:27.566Z,95.30
2023-03-12T17:34:01.425Z,95.40
2023-03-12T17:36:28.097Z,95.30
2023-03-12T17:38:56.380Z,95.60
2023-03-12T17:41:26.996Z,95.90
2023-03-12T17:43:55.255Z,96.10
2023-03-12T17:46:22.371Z,96.10
2023-03-12T17:48:49.520Z,96.30
2023-03-12T17:51:22.373Z,96.30
2023-03-12T17:53:49.065Z,96.30
2023-03-12T17:56:19.033Z,96.70
2023-03-12T17:58:46.284Z,96.80
2023-03-12T18:01:14.794Z,97.30
2023-03-12T18:03:43.740Z,97.60
2023-03-12T18:06:11.401Z,98.00
2023-03-12T18:08:38.147Z,98.30
2023-03-12T18:11:08.193Z,98.30
2023-03-12T18:13:35.611Z,98.30
2023-03-12T18:16:02.871Z,98.30
2023-03-12T18:18:32.744Z,98.30
2023-03-12T18:20:59.936Z,98.30
2023-03-12T18:23:27.841Z,98.30
2023-03-12T18:26:00.961Z,98.30
2023-03-12T18:28:30.882Z,98.30
2023-03-12T18:30:57.723Z,98.30
2023-03-12T18:33:37.495Z,98.30
2023-03-12T18:36:05.462Z,98.30
2023-03-12T18:38:32.825Z,98.30
2023-03-12T18:41:12.265Z,98.30
2023-03-12T18:43:43.222Z,98.30
2023-03-12T18:46:11.339Z,98.30
2023-03-12T18:48:43.897Z,98.30
2023-03-12T18:51:11.041Z,98.30
2023-03-12T18:53:37.698Z,98.30
2023-03-12T18:56:04.675Z,98.30
2023-03-12T18:58:31.396Z,98.30
2023-03-12T19:00:58.872Z,98.30
2023-03-12T19:03:26.875Z,98.30
2023-03-12T19:06:05.596Z,98.30
2023-03-12T19:08:32.417Z,98.30
2023-03-12T19:11:07.836Z,98.30
2023-03-12T19:13:35.169Z,98.30
2023-03-12T19:16:09.990Z,98.30
2023-03-12T19:18:38.247Z,98.30
2023-03-12T19:21:14.866Z,98.30
2023-03-12T19:23:41.745Z,98.30
2023-03-12T19:26:08.708Z,98.30
2023-03-12T19:28:36.217Z,98.30
2023-03-12T19:31:08.509Z,98.30
2023-03-12T19:33:36.584Z,98.30
2023-03-12T19:36:04.003Z,98.30
2023-03-12T19:38:31.013Z,98.30
2023-03-12T19:41:01.364Z,98.30
2023-03-12T19:43:28.034Z,98.30
2023-03-12T19:46:00.528Z,98.30
2023-03-12T19:48:27.592Z,98.30
2023-03-12T19:50:57.814Z,98.30
2023-03-12T19:53:24.958Z,98.30
2023-03-12T19:55:52.041Z,98.30
2023-03-12T19:58:18.952Z,98.30
2023-03-12T20:00:45.698Z,98.30
2023-03-12T20:03:12.663Z,98.30
2023-03-12T20:05:44.048Z,98.30
2023-03-12T20:08:11.246Z,98.20
2023-03-12T20:10:38.989Z,97.80
2023-03-12T20:13:05.719Z,97.10
2023-03-12T20:15:32.484Z,97.10
2023-03-12T20:17:59.240Z,97.00
2023-03-12T20:20:26.549Z,97.00
2023-03-12T20:22:53.358Z,96.70
2023-03-12T20:25:19.992Z,97.10
2023-03-12T20:27:47.262Z,97.40
2023-03-12T20:30:14.604Z,97.70
2023-03-12T20:32:42.688Z,98.10
2023-03-12T20:35:10.138Z,98.30
2023-03-12T20:37:37.024Z,98.30
2023-03-12T20:40:05.176Z,98.10
2023-03-12T20:42:31.884Z,98.30
2023-03-12T20:44:58.571Z,98.30
2023-03-12T20:47:26.124Z,98.00
2023-03-12T20:49:53.095Z,97.80
2023-03-12T20:52:19.811Z,97.70
2023-03-12T20:54:46.655Z,97.00
2023-03-12T20:57:13.314Z,96.70
2023-03-12T20:59:40.366Z,96.60
2023-03-12T21:02:08.989Z,96.40
2023-03-12T21:04:38.534Z,96.20
2023-03-12T21:07:06.467Z,95.80
2023-03-12T21:09:33.242Z,95.90
2023-03-12T21:11:59.954Z,96.10
2023-03-12T21:14:26.748Z,95.80
2023-03-12T21:16:53.595Z,95.60
2023-03-12T21:19:20.311Z,95.60
2023-03-12T21:21:47.944Z,95.60
2023-03-12T21:24:14.757Z,95.60
2023-03-12T21:26:41.498Z,95.70
2023-03-12T21:29:10.004Z,96.30
2023-03-12T21:31:36.695Z,96.90
2023-03-12T21:34:03.380Z,96.60
2023-03-12T21:36:30.136Z,96.70
2023-03-12T21:38:56.766Z,97.00
2023-03-12T21:41:23.712Z,97.10
2023-03-12T21:43:50.377Z,96.70
2023-03-12T21:46:21.101Z,96.60
2023-03-12T21:48:48.595Z,96.80
2023-03-12T21:51:16.970Z,97.30
2023-03-12T21:53:44.529Z,97.50
2023-03-12T21:56:11.892Z,97.60
2023-03-12T21:58:38.835Z,97.50
2023-03-12T22:01:14.758Z,97.50
2023-03-12T22:03:42.981Z,97.50
2023-03-12T22:06:10.644Z,97.20
2023-03-12T22:08:38.284Z,96.80
2023-03-12T22:11:06.507Z,97.10
2023-03-12T22:13:33.181Z,97.60
2023-03-12T22:16:02.015Z,98.00
2023-03-12T22:18:29.640Z,98.10
2023-03-12T22:20:59.634Z,98.30
2023-03-12T22:23:26.738Z,98.30
2023-03-12T22:25:53.740Z,98.30
2023-03-12T22:28:20.777Z,98.20
2023-03-12T22:30:47.656Z,98.10
2023-03-12T22:33:14.400Z,98.30
2023-03-12T22:35:45.995Z,98.30
2023-03-12T22:38:14.133Z,98.30
2023-03-12T22:40:41.589Z,98.30
2023-03-12T22:43:08.495Z,98.30
2023-03-12T22:45:35.574Z,98.30
2023-03-12T22:48:02.410Z,98.30
2023-03-12T22:50:29.129Z,98.30
2023-03-12T22:52:55.847Z,98.30
2023-03-12T22:55:23.230Z,98.30
2023-03-12T22:57:53.290Z,98.30
2023-03-12T23:00:26.438Z,98.30
2023-03-12T23:02:53.208Z,98.30
2023-03-12T23:05:20.327Z,98.30
2023-03-12T23:07:47.708Z,98.30
2023-03-12T23:10:17.629Z,98.30
2023-03-12T23:12:44.313Z,98.30
2023-03-12T23:15:11.128Z,98.30
2023-03-12T23:17:38.176Z,98.30
2023-03-12T23:20:06.032Z,98.30
2023-03-12T23:22:33.607Z,98.30
2023-03-12T23:25:00.263Z,98.30
2023-03-12T23:27:26.917Z,98.30
2023-03-12T23:29:53.564Z,98.30
2023-03-12T23:32:20.278Z,98.30
2023-03-12T23:34:50.465Z,98.30
2023-03-12T23:37:17.175Z,98.30
2023-03-12T23:39:53.932Z,98.30
2023-03-12T23:42:21.645Z,98.30
2023-03-12T23:44:48.321Z,98.30
2023-03-12T23:47:14.967Z,98.30
2023-03-12T23:49:41.644Z,98.30
2023-03-12T23:52:08.295Z,98.30
2023-03-12T23:54:35.808Z,98.30
2023-03-12T23:57:02.579Z,98.30
2023-03-12T23:59:29.235Z,98.30
